Terminal Aerodrome Forecast
Issued by NWS Topeka, KS

Home | Current Version | Previous Version | Text Only | Print | Product List | Glossary Off
Versions: 1 2 3 4 5 6 7 8 9 10 11 12 13 14 15 16 17 18 19 20 21 22 23 24 25 26 27 28 29

000
FTUS43 KTOP 251600 AAC
TAFTOP
TAF AMD
KTOP 251629Z 2516/2612 02005KT 2SM BR OVC004
     FM251800 02012KT P6SM SCT020 OVC120
     FM252200 01015G23KT P6SM -RA SCT025 OVC050
     FM260500 35008KT P6SM SCT050 BKN100=

USA.gov is the U.S. government's official web portal to all federal, state and local government web resources and services.